Time;durP1;ratioP1;P1;durP2;ratioP2;P2;SDS_P1;SDS_P2;PMS_P1;PMS_P2;Temp;Humidity;BMP_temperature;BMP_pressure;BME280_temperature;BME280_humidity;BME280_pressure;Samples;Min_cycle;Max_cycle;Signal;HPM_P1;HPM_P2
2024/01/22 00:01:39;;;;;;;14.38;7.72;;;;;;;;;;5018146;28;20113;-78
2024/01/22 00:04:07;;;;;;;19.88;8.10;;;;;;;;;;4983440;28;20034;-77
2024/01/22 00:06:33;;;;;;;11.65;6.35;;;;;;;;;;4989215;28;20030;-78
2024/01/22 00:08:59;;;;;;;12.73;6.93;;;;;;;;;;4989229;28;20033;-79
2024/01/22 00:11:25;;;;;;;18.00;7.85;;;;;;;;;;5004719;28;20114;-79
2024/01/22 00:13:52;;;;;;;13.77;7.00;;;;;;;;;;4986237;28;20100;-78
2024/01/22 00:16:18;;;;;;;13.77;6.90;;;;;;;;;;5004510;28;20392;-79
2024/01/22 00:18:45;;;;;;;9.05;6.18;;;;;;;;;;4984376;28;20043;-79
2024/01/22 00:21:11;;;;;;;12.43;6.70;;;;;;;;;;4991752;28;20129;-79
2024/01/22 00:23:37;;;;;;;16.58;6.85;;;;;;;;;;4986145;28;20567;-77
2024/01/22 00:26:03;;;;;;;14.55;6.68;;;;;;;;;;5012068;28;20061;-78
2024/01/22 00:28:29;;;;;;;16.38;6.97;;;;;;;;;;5007310;28;20064;-80
2024/01/22 00:30:56;;;;;;;12.05;6.75;;;;;;;;;;4981481;28;20030;-79
2024/01/22 00:33:23;;;;;;;14.10;7.15;;;;;;;;;;4986497;28;20034;-78
2024/01/22 00:35:49;;;;;;;16.38;6.45;;;;;;;;;;5010266;28;20042;-77
2024/01/22 00:38:15;;;;;;;9.63;5.75;;;;;;;;;;4981811;28;20121;-78
2024/01/22 00:40:41;;;;;;;12.18;6.75;;;;;;;;;;4968762;28;20026;-78
2024/01/22 00:43:07;;;;;;;10.98;6.20;;;;;;;;;;4981330;28;20030;-77
2024/01/22 00:45:35;;;;;;;17.73;7.22;;;;;;;;;;4983854;28;20115;-79
2024/01/22 00:48:01;;;;;;;12.55;6.93;;;;;;;;;;4982624;28;20038;-78
2024/01/22 00:50:28;;;;;;;11.95;6.50;;;;;;;;;;4985987;28;20081;-78
2024/01/22 00:52:54;;;;;;;13.60;6.85;;;;;;;;;;4988124;28;20480;-77
2024/01/22 00:55:22;;;;;;;16.23;6.57;;;;;;;;;;4985184;28;20084;-81
2024/01/22 00:57:48;;;;;;;13.80;7.03;;;;;;;;;;4985584;28;20046;-78
2024/01/22 01:00:15;;;;;;;13.20;6.55;;;;;;;;;;4978468;28;20066;-78
2024/01/22 01:02:41;;;;;;;11.70;6.72;;;;;;;;;;4982992;28;20031;-79
2024/01/22 01:05:08;;;;;;;13.45;6.45;;;;;;;;;;4980141;28;20023;-76
2024/01/22 01:07:35;;;;;;;15.95;6.57;;;;;;;;;;4985993;28;20074;-77
2024/01/22 01:10:01;;;;;;;13.73;6.93;;;;;;;;;;4978700;28;20034;-77
2024/01/22 01:12:27;;;;;;;16.23;7.13;;;;;;;;;;4985411;28;20554;-77
2024/01/22 01:14:53;;;;;;;12.55;6.90;;;;;;;;;;5009263;28;20039;-80
2024/01/22 01:17:19;;;;;;;15.43;7.65;;;;;;;;;;4985076;28;20292;-78
2024/01/22 01:19:45;;;;;;;15.25;7.90;;;;;;;;;;4988447;28;20037;-79
2024/01/22 01:22:13;;;;;;;12.38;6.90;;;;;;;;;;4983150;28;20074;-77
2024/01/22 01:24:39;;;;;;;17.20;7.00;;;;;;;;;;5011413;28;20046;-77
2024/01/22 01:27:05;;;;;;;13.35;7.43;;;;;;;;;;5016929;28;20030;-78
2024/01/22 01:29:32;;;;;;;11.05;7.38;;;;;;;;;;4995345;28;20085;-79
2024/01/22 01:31:58;;;;;;;14.32;7.30;;;;;;;;;;5012887;28;20044;-77
2024/01/22 01:34:25;;;;;;;18.60;8.07;;;;;;;;;;4991103;28;20120;-80
2024/01/22 01:36:51;;;;;;;14.20;6.95;;;;;;;;;;4989357;28;20542;-77
2024/01/22 01:39:17;;;;;;;13.60;6.90;;;;;;;;;;4988102;28;20097;-78
2024/01/22 01:41:43;;;;;;;17.70;7.15;;;;;;;;;;5007834;28;20038;-79
2024/01/22 01:44:09;;;;;;;13.20;6.43;;;;;;;;;;4986800;28;20169;-78
2024/01/22 01:46:35;;;;;;;13.38;6.80;;;;;;;;;;5010223;28;20539;-77
2024/01/22 01:49:02;;;;;;;13.52;6.40;;;;;;;;;;4987714;28;20031;-78
2024/01/22 01:51:28;;;;;;;15.57;6.97;;;;;;;;;;5012289;28;20081;-76
2024/01/22 01:53:55;;;;;;;12.23;5.80;;;;;;;;;;4982786;28;20046;-80
2024/01/22 01:56:21;;;;;;;12.60;5.97;;;;;;;;;;4985461;28;20042;-79
2024/01/22 01:58:48;;;;;;;12.90;5.57;;;;;;;;;;5008507;28;20051;-78
2024/01/22 02:01:16;;;;;;;8.52;4.82;;;;;;;;;;4982678;28;20026;-79
2024/01/22 02:03:42;;;;;;;10.70;5.05;;;;;;;;;;4989084;28;20025;-78
2024/01/22 02:06:08;;;;;;;16.05;5.10;;;;;;;;;;4986472;28;20039;-78
2024/01/22 02:08:34;;;;;;;10.70;4.75;;;;;;;;;;5015553;28;20614;-78
2024/01/22 02:11:00;;;;;;;11.30;4.50;;;;;;;;;;4982959;28;20037;-78
2024/01/22 02:13:28;;;;;;;11.88;4.63;;;;;;;;;;5011391;28;20043;-78
2024/01/22 02:15:55;;;;;;;13.23;5.00;;;;;;;;;;4983886;28;20150;-78
2024/01/22 02:18:21;;;;;;;10.35;4.55;;;;;;;;;;4984934;28;20034;-79
2024/01/22 02:20:47;;;;;;;8.32;4.10;;;;;;;;;;4987812;28;20057;-77
2024/01/22 02:23:13;;;;;;;6.22;3.80;;;;;;;;;;4987048;28;20134;-79
2024/01/22 02:25:39;;;;;;;7.40;4.18;;;;;;;;;;4991186;28;20115;-77
2024/01/22 02:28:06;;;;;;;11.38;4.35;;;;;;;;;;4984661;28;20480;-79
2024/01/22 02:30:32;;;;;;;8.18;3.95;;;;;;;;;;4985451;28;20022;-78
2024/01/22 02:32:58;;;;;;;12.00;4.35;;;;;;;;;;4989662;28;20030;-76
2024/01/22 02:35:24;;;;;;;11.20;4.40;;;;;;;;;;4985789;28;20076;-79
2024/01/22 02:37:51;;;;;;;8.48;4.07;;;;;;;;;;4986732;28;20146;-79
2024/01/22 02:40:17;;;;;;;11.23;4.22;;;;;;;;;;4988889;28;20408;-79
2024/01/22 02:42:43;;;;;;;7.50;3.83;;;;;;;;;;4979122;28;20031;-79
2024/01/22 02:45:09;;;;;;;9.75;3.83;;;;;;;;;;4984781;28;20328;-78
2024/01/22 02:47:36;;;;;;;9.98;3.90;;;;;;;;;;5015885;28;20113;-78
2024/01/22 02:50:02;;;;;;;9.18;4.00;;;;;;;;;;4986258;28;20462;-77
2024/01/22 02:52:28;;;;;;;7.25;3.40;;;;;;;;;;5013688;28;20409;-77
2024/01/22 02:54:54;;;;;;;7.15;3.53;;;;;;;;;;4995466;28;20125;-78
2024/01/22 02:57:20;;;;;;;9.45;3.05;;;;;;;;;;4985361;28;20023;-77
2024/01/22 02:59:46;;;;;;;6.93;3.15;;;;;;;;;;4986555;28;20026;-79
2024/01/22 03:02:12;;;;;;;5.35;3.00;;;;;;;;;;4998133;28;20121;-81
2024/01/22 03:04:39;;;;;;;4.28;2.75;;;;;;;;;;4987284;28;20046;-77
2024/01/22 03:07:05;;;;;;;4.53;2.53;;;;;;;;;;4987426;28;20034;-79
2024/01/22 03:09:31;;;;;;;6.03;2.63;;;;;;;;;;4985871;28;20117;-78
2024/01/22 03:11:58;;;;;;;5.13;2.38;;;;;;;;;;4992261;28;20041;-81
2024/01/22 03:14:25;;;;;;;4.07;2.22;;;;;;;;;;4982543;28;20118;-78
2024/01/22 03:16:51;;;;;;;4.18;2.53;;;;;;;;;;4987193;28;20041;-79
2024/01/22 03:19:17;;;;;;;3.67;2.30;;;;;;;;;;4986033;28;20042;-80
2024/01/22 03:21:43;;;;;;;4.18;2.40;;;;;;;;;;4984327;28;20117;-80
2024/01/22 03:24:09;;;;;;;6.25;2.28;;;;;;;;;;4986270;28;20480;-78
2024/01/22 03:26:35;;;;;;;6.15;2.90;;;;;;;;;;4982218;28;20034;-77
2024/01/22 03:29:02;;;;;;;3.40;2.55;;;;;;;;;;5009148;28;20043;-79
2024/01/22 03:31:29;;;;;;;5.35;2.53;;;;;;;;;;4989587;28;20116;-77
2024/01/22 03:33:55;;;;;;;4.07;2.17;;;;;;;;;;4986925;28;20018;-79
2024/01/22 03:36:22;;;;;;;2.92;2.20;;;;;;;;;;4987770;28;20031;-79
2024/01/22 03:38:49;;;;;;;4.05;2.22;;;;;;;;;;4994576;28;20420;-79
2024/01/22 03:41:15;;;;;;;3.78;2.40;;;;;;;;;;4988713;28;20128;-80
2024/01/22 03:43:42;;;;;;;3.72;2.35;;;;;;;;;;5010371;28;20105;-79
2024/01/22 03:46:09;;;;;;;4.65;2.28;;;;;;;;;;5011800;28;20491;-78
2024/01/22 03:48:35;;;;;;;4.28;2.30;;;;;;;;;;5014563;28;20485;-80
2024/01/22 03:51:01;;;;;;;4.90;2.42;;;;;;;;;;4989147;28;20558;-78
2024/01/22 03:53:27;;;;;;;3.45;2.08;;;;;;;;;;4985506;28;20030;-79
2024/01/22 03:55:53;;;;;;;5.32;2.10;;;;;;;;;;4984896;28;20077;-80
2024/01/22 03:58:19;;;;;;;3.55;2.30;;;;;;;;;;4987304;28;20049;-80
2024/01/22 04:00:45;;;;;;;4.60;1.90;;;;;;;;;;4972718;28;20033;-81
2024/01/22 04:03:12;;;;;;;4.32;2.00;;;;;;;;;;4987170;28;20397;-81
2024/01/22 04:05:38;;;;;;;3.95;2.13;;;;;;;;;;4984148;28;20152;-81
2024/01/22 04:08:04;;;;;;;3.53;2.10;;;;;;;;;;4988352;28;20034;-78
2024/01/22 04:10:32;;;;;;;2.92;1.95;;;;;;;;;;4990058;28;20121;-80
2024/01/22 04:12:59;;;;;;;4.05;2.20;;;;;;;;;;5006575;28;20034;-81
2024/01/22 04:15:25;;;;;;;3.65;2.20;;;;;;;;;;5011016;28;20034;-77
2024/01/22 04:17:51;;;;;;;2.67;2.03;;;;;;;;;;4992655;28;20065;-78
2024/01/22 04:20:21;;;;;;;2.88;1.88;;;;;;;;;;4988733;28;20026;-84
2024/01/22 04:22:47;;;;;;;3.85;1.90;;;;;;;;;;4985171;28;20046;-78
2024/01/22 04:25:13;;;;;;;4.38;1.75;;;;;;;;;;4986724;28;20030;-78
2024/01/22 04:27:39;;;;;;;7.72;1.88;;;;;;;;;;4989234;28;20034;-81
2024/01/22 04:30:05;;;;;;;3.08;1.85;;;;;;;;;;4985646;28;20038;-78
2024/01/22 04:32:32;;;;;;;3.83;1.67;;;;;;;;;;4983260;28;20126;-77
2024/01/22 04:34:58;;;;;;;2.88;1.80;;;;;;;;;;4987881;28;20057;-78
2024/01/22 04:37:24;;;;;;;2.97;2.00;;;;;;;;;;4988516;28;20038;-81
2024/01/22 04:39:50;;;;;;;3.83;1.55;;;;;;;;;;4987452;28;20395;-80
2024/01/22 04:42:20;;;;;;;6.30;1.88;;;;;;;;;;4997022;28;20030;-79
2024/01/22 04:44:46;;;;;;;2.47;1.52;;;;;;;;;;5027608;28;20740;-82
2024/01/22 04:47:12;;;;;;;2.58;1.70;;;;;;;;;;5014590;28;20030;-77
2024/01/22 04:49:39;;;;;;;2.75;1.63;;;;;;;;;;4987252;28;20031;-77
2024/01/22 04:52:05;;;;;;;3.00;1.38;;;;;;;;;;5013145;28;20058;-77
2024/01/22 04:54:31;;;;;;;1.98;1.52;;;;;;;;;;4990909;28;20045;-77
2024/01/22 04:56:57;;;;;;;3.10;1.80;;;;;;;;;;4993217;28;20189;-80
2024/01/22 04:59:25;;;;;;;6.55;1.55;;;;;;;;;;4972258;28;20042;-79
2024/01/22 05:01:51;;;;;;;4.43;1.50;;;;;;;;;;4989952;28;20109;-81
2024/01/22 05:04:17;;;;;;;13.73;2.05;;;;;;;;;;4990785;28;20035;-77
2024/01/22 05:06:43;;;;;;;2.75;1.35;;;;;;;;;;4991679;28;20503;-79
2024/01/22 05:09:09;;;;;;;4.35;1.70;;;;;;;;;;4989297;28;20538;-80
2024/01/22 05:11:35;;;;;;;3.72;1.67;;;;;;;;;;4990770;28;20034;-78
2024/01/22 05:14:03;;;;;;;3.88;1.83;;;;;;;;;;4989916;28;20038;-79
2024/01/22 05:16:29;;;;;;;5.85;2.33;;;;;;;;;;4988336;28;20044;-78
2024/01/22 05:18:55;;;;;;;2.75;2.17;;;;;;;;;;5015874;28;20023;-78
2024/01/22 05:21:21;;;;;;;4.25;2.17;;;;;;;;;;4988822;28;20562;-79
2024/01/22 05:23:49;;;;;;;4.65;1.95;;;;;;;;;;5009465;28;20074;-79
2024/01/22 05:26:15;;;;;;;2.53;2.13;;;;;;;;;;4989932;28;20040;-78
2024/01/22 05:28:41;;;;;;;3.28;1.88;;;;;;;;;;4989723;28;20072;-77
2024/01/22 05:31:08;;;;;;;8.07;2.10;;;;;;;;;;4988532;28;20046;-79
2024/01/22 05:33:34;;;;;;;4.95;2.15;;;;;;;;;;5008103;28;20125;-81
2024/01/22 05:36:00;;;;;;;3.60;2.10;;;;;;;;;;4990888;28;20080;-78
2024/01/22 05:38:26;;;;;;;5.43;2.00;;;;;;;;;;4984570;28;20039;-79
2024/01/22 05:40:52;;;;;;;6.28;2.03;;;;;;;;;;5012852;28;20105;-78
2024/01/22 05:43:18;;;;;;;9.23;2.60;;;;;;;;;;4989522;28;20034;-79
2024/01/22 05:45:44;;;;;;;8.65;2.40;;;;;;;;;;5015305;28;20038;-77
2024/01/22 05:48:11;;;;;;;6.90;2.05;;;;;;;;;;4989338;28;20037;-78
2024/01/22 05:50:38;;;;;;;12.63;3.15;;;;;;;;;;4987129;28;20201;-81
2024/01/22 05:53:04;;;;;;;9.82;2.33;;;;;;;;;;5014274;28;20100;-77
2024/01/22 05:55:30;;;;;;;5.53;1.92;;;;;;;;;;4988818;28;20039;-78
2024/01/22 05:57:56;;;;;;;8.90;2.03;;;;;;;;;;4989018;28;20034;-79
2024/01/22 06:00:23;;;;;;;6.72;2.30;;;;;;;;;;4986839;28;20070;-80
2024/01/22 06:02:50;;;;;;;10.75;2.50;;;;;;;;;;4984983;28;20438;-78
2024/01/22 06:05:16;;;;;;;9.48;2.55;;;;;;;;;;5017259;28;20152;-79
2024/01/22 06:07:42;;;;;;;13.13;3.20;;;;;;;;;;4990901;28;20053;-76
2024/01/22 06:10:08;;;;;;;10.98;2.65;;;;;;;;;;4992399;28;20026;-79
2024/01/22 06:12:35;;;;;;;9.73;3.05;;;;;;;;;;5019964;28;20034;-80
2024/01/22 06:15:01;;;;;;;12.45;2.55;;;;;;;;;;4987273;28;20061;-81
2024/01/22 06:17:31;;;;;;;22.60;4.38;;;;;;;;;;4986030;28;20509;-79
2024/01/22 06:19:59;;;;;;;12.32;2.30;;;;;;;;;;4988604;28;20050;-78
2024/01/22 06:22:25;;;;;;;15.38;2.63;;;;;;;;;;4986541;28;20046;-81
2024/01/22 06:24:52;;;;;;;11.98;2.50;;;;;;;;;;5016448;28;20057;-78
2024/01/22 06:27:18;;;;;;;15.48;2.88;;;;;;;;;;4986567;28;20030;-77
2024/01/22 06:29:44;;;;;;;10.38;2.60;;;;;;;;;;4985148;28;20042;-77
2024/01/22 06:32:11;;;;;;;12.88;2.45;;;;;;;;;;4983886;28;20033;-79
2024/01/22 06:34:37;;;;;;;15.43;3.33;;;;;;;;;;4987847;28;20035;-83
2024/01/22 06:37:04;;;;;;;15.70;2.50;;;;;;;;;;4989479;28;20034;-76
2024/01/22 06:39:30;;;;;;;12.05;2.50;;;;;;;;;;4990690;28;20050;-79
2024/01/22 06:41:57;;;;;;;14.55;2.60;;;;;;;;;;4994616;28;20118;-81
2024/01/22 06:44:26;;;;;;;14.57;2.70;;;;;;;;;;4992899;28;20460;-82
2024/01/22 06:46:52;;;;;;;13.90;3.10;;;;;;;;;;4982097;28;20042;-80
2024/01/22 06:49:18;;;;;;;10.38;2.08;;;;;;;;;;5011991;28;20038;-83
2024/01/22 06:51:44;;;;;;;7.55;2.30;;;;;;;;;;4985527;28;20073;-84
2024/01/22 06:54:10;;;;;;;10.23;2.95;;;;;;;;;;4973481;28;20121;-82
2024/01/22 06:56:37;;;;;;;11.57;3.00;;;;;;;;;;4987715;28;20022;-80
2024/01/22 06:59:03;;;;;;;11.70;2.60;;;;;;;;;;4990514;28;20109;-80
2024/01/22 07:01:29;;;;;;;12.27;3.28;;;;;;;;;;5029109;28;20035;-77
2024/01/22 07:03:55;;;;;;;12.00;2.85;;;;;;;;;;4996968;28;20081;-80
2024/01/22 07:06:23;;;;;;;17.60;3.50;;;;;;;;;;4992655;28;20065;-77
2024/01/22 07:08:49;;;;;;;9.48;2.75;;;;;;;;;;4990652;28;20034;-81
2024/01/22 07:11:15;;;;;;;21.45;4.25;;;;;;;;;;4986478;28;20029;-77
2024/01/22 07:13:42;;;;;;;23.33;4.35;;;;;;;;;;4981450;28;20117;-75
2024/01/22 07:16:08;;;;;;;18.17;3.55;;;;;;;;;;4981992;28;20049;-76
2024/01/22 07:18:34;;;;;;;20.75;4.45;;;;;;;;;;4985309;28;20031;-75
2024/01/22 07:21:01;;;;;;;24.98;4.43;;;;;;;;;;4981398;28;20030;-78
2024/01/22 07:23:27;;;;;;;27.23;4.68;;;;;;;;;;4986468;28;20038;-77
2024/01/22 07:25:57;;;;;;;33.30;4.70;;;;;;;;;;4979998;28;20026;-79
2024/01/22 07:28:23;;;;;;;34.13;5.35;;;;;;;;;;4988513;28;20054;-77
2024/01/22 07:30:49;;;;;;;37.00;5.82;;;;;;;;;;4987095;28;20197;-77
2024/01/22 07:33:15;;;;;;;33.15;6.55;;;;;;;;;;4992787;28;20516;-75
2024/01/22 07:35:43;;;;;;;40.65;6.72;;;;;;;;;;4986702;28;20034;-76
2024/01/22 07:38:09;;;;;;;37.83;6.30;;;;;;;;;;4971022;28;20432;-77
2024/01/22 07:40:35;;;;;;;56.50;9.73;;;;;;;;;;4983163;28;20555;-76
2024/01/22 07:43:02;;;;;;;69.57;9.00;;;;;;;;;;4974832;28;20031;-77
2024/01/22 07:45:28;;;;;;;53.75;8.93;;;;;;;;;;5017176;28;20042;-77
2024/01/22 07:47:54;;;;;;;54.53;9.25;;;;;;;;;;4999907;28;20397;-76
2024/01/22 07:50:21;;;;;;;55.80;9.32;;;;;;;;;;4986757;28;20050;-76
2024/01/22 07:52:47;;;;;;;57.05;10.32;;;;;;;;;;4975646;28;20049;-76
2024/01/22 07:55:16;;;;;;;61.00;9.63;;;;;;;;;;4983507;28;20039;-76
2024/01/22 07:57:42;;;;;;;53.03;8.60;;;;;;;;;;4982899;28;20185;-76
2024/01/22 08:00:11;;;;;;;56.83;9.32;;;;;;;;;;5007838;28;20051;-76
2024/01/22 08:02:41;;;;;;;49.25;8.10;;;;;;;;;;4982938;28;20031;-76
2024/01/22 08:05:07;;;;;;;71.95;9.50;;;;;;;;;;4979709;28;20096;-76
2024/01/22 08:07:34;;;;;;;59.25;9.68;;;;;;;;;;4979831;28;20038;-76
2024/01/22 08:10:00;;;;;;;64.22;11.07;;;;;;;;;;4972291;28;20157;-76
2024/01/22 08:12:26;;;;;;;68.40;9.77;;;;;;;;;;4974479;28;20035;-76
2024/01/22 08:14:52;;;;;;;63.28;9.32;;;;;;;;;;4976474;28;20519;-76
2024/01/22 08:17:18;;;;;;;80.75;9.52;;;;;;;;;;4983651;28;20137;-77
2024/01/22 08:19:45;;;;;;;64.10;11.00;;;;;;;;;;4980691;28;20035;-77
2024/01/22 08:22:11;;;;;;;52.72;8.65;;;;;;;;;;4981800;28;20042;-75
2024/01/22 08:24:37;;;;;;;65.97;9.43;;;;;;;;;;4984684;28;20058;-76
2024/01/22 08:27:03;;;;;;;56.80;7.97;;;;;;;;;;4983010;28;20034;-75
2024/01/22 08:29:30;;;;;;;53.30;7.78;;;;;;;;;;5005257;28;20033;-76
2024/01/22 08:31:56;;;;;;;63.00;7.80;;;;;;;;;;4972886;28;20336;-74
2024/01/22 08:34:22;;;;;;;62.80;9.27;;;;;;;;;;4975606;28;20026;-75
2024/01/22 08:36:49;;;;;;;51.80;8.50;;;;;;;;;;5012054;28;20157;-77
2024/01/22 08:39:15;;;;;;;59.72;8.77;;;;;;;;;;4983839;28;20027;-75
2024/01/22 08:41:41;;;;;;;58.20;8.93;;;;;;;;;;5006834;28;20030;-75
2024/01/22 08:44:09;;;;;;;59.55;9.30;;;;;;;;;;5007819;28;20130;-77
2024/01/22 08:46:37;;;;;;;61.33;8.68;;;;;;;;;;4974868;28;20023;-76
2024/01/22 08:49:03;;;;;;;66.63;9.18;;;;;;;;;;4984139;28;20047;-77
2024/01/22 08:51:29;;;;;;;70.22;9.93;;;;;;;;;;5005065;28;20034;-76
2024/01/22 08:53:55;;;;;;;72.05;10.00;;;;;;;;;;4984019;28;20069;-75
2024/01/22 08:56:25;;;;;;;84.60;11.07;;;;;;;;;;4967578;28;20051;-76
2024/01/22 08:58:51;;;;;;;66.18;10.25;;;;;;;;;;4997666;28;20034;-75
2024/01/22 09:01:18;;;;;;;67.43;10.50;;;;;;;;;;5012301;28;20048;-75
2024/01/22 09:03:44;;;;;;;75.03;10.05;;;;;;;;;;5009449;28;20030;-75
2024/01/22 09:06:10;;;;;;;77.38;11.93;;;;;;;;;;5000659;28;20134;-74
2024/01/22 09:08:37;;;;;;;71.57;11.27;;;;;;;;;;4969790;28;20291;-75
2024/01/22 09:11:03;;;;;;;61.33;10.52;;;;;;;;;;4969859;28;20509;-76
2024/01/22 09:13:29;;;;;;;71.78;10.57;;;;;;;;;;4978767;28;20031;-75
2024/01/22 09:15:57;;;;;;;73.75;10.63;;;;;;;;;;5003968;28;20065;-76
2024/01/22 09:18:23;;;;;;;78.35;11.60;;;;;;;;;;5000793;28;20088;-75
2024/01/22 09:20:49;;;;;;;75.95;11.35;;;;;;;;;;4978997;28;20619;-75
2024/01/22 09:23:16;;;;;;;78.47;10.77;;;;;;;;;;4996440;28;20133;-75
2024/01/22 09:25:42;;;;;;;72.55;11.27;;;;;;;;;;5013293;28;20125;-76
2024/01/22 09:28:08;;;;;;;65.65;10.65;;;;;;;;;;5009246;28;20322;-76
2024/01/22 09:30:34;;;;;;;78.30;11.82;;;;;;;;;;4980480;28;20081;-75
2024/01/22 09:33:00;;;;;;;64.68;8.82;;;;;;;;;;5001220;28;20125;-76
2024/01/22 09:35:27;;;;;;;63.50;9.38;;;;;;;;;;4984806;28;20490;-77
2024/01/22 09:37:54;;;;;;;68.57;10.48;;;;;;;;;;4986622;28;20034;-77
2024/01/22 09:40:24;;;;;;;69.07;8.55;;;;;;;;;;4986249;28;20034;-77
2024/01/22 09:42:51;;;;;;;61.72;9.18;;;;;;;;;;4974362;28;20031;-75
2024/01/22 09:45:18;;;;;;;59.67;8.80;;;;;;;;;;4977585;28;20054;-76
2024/01/22 09:47:46;;;;;;;67.38;10.55;;;;;;;;;;4989786;28;20053;-76
2024/01/22 09:50:12;;;;;;;74.50;10.60;;;;;;;;;;5006809;28;20034;-75
2024/01/22 09:52:45;;;;;;;61.28;9.82;;;;;;;;;;4991671;28;20042;-76
2024/01/22 09:55:13;;;;;;;53.95;7.93;;;;;;;;;;4984922;28;20041;-76
2024/01/22 09:57:43;;;;;;;73.13;11.13;;;;;;;;;;4986635;28;20039;-77
2024/01/22 10:00:10;;;;;;;55.60;8.60;;;;;;;;;;4985064;28;20038;-78
2024/01/22 10:02:40;;;;;;;50.40;7.88;;;;;;;;;;4973002;28;20039;-76
2024/01/22 10:05:08;;;;;;;51.13;7.63;;;;;;;;;;4978420;28;20068;-76
2024/01/22 10:07:34;;;;;;;45.95;6.88;;;;;;;;;;4978467;28;20041;-76
2024/01/22 10:10:00;;;;;;;52.15;7.93;;;;;;;;;;4978163;28;20099;-76
2024/01/22 10:12:26;;;;;;;45.83;8.15;;;;;;;;;;4979849;28;20042;-75
2024/01/22 10:14:55;;;;;;;39.00;6.15;;;;;;;;;;5009406;28;20042;-76
2024/01/22 10:17:25;;;;;;;46.97;8.07;;;;;;;;;;4989398;28;20109;-76
2024/01/22 10:19:54;;;;;;;36.63;6.50;;;;;;;;;;4986138;28;20043;-75
2024/01/22 10:22:20;;;;;;;44.33;6.32;;;;;;;;;;5003865;28;20038;-76
2024/01/22 10:25:06;;;;;;;49.35;8.00;;;;;;;;;;5015177;28;20122;-75
2024/01/22 10:27:32;;;;;;;44.50;6.93;;;;;;;;;;4987989;28;20434;-77
2024/01/22 10:30:09;;;;;;;38.58;6.90;;;;;;;;;;4985495;28;20023;-76
2024/01/22 10:32:36;;;;;;;42.58;5.40;;;;;;;;;;4982304;28;20611;-77
2024/01/22 10:35:03;;;;;;;43.10;6.72;;;;;;;;;;4984145;28;20039;-76
2024/01/22 10:37:30;;;;;;;36.30;5.95;;;;;;;;;;4980708;28;20472;-75
2024/01/22 10:40:01;;;;;;;45.05;6.90;;;;;;;;;;4986901;28;20104;-75
2024/01/22 10:42:27;;;;;;;36.63;6.20;;;;;;;;;;4987328;28;20245;-75
2024/01/22 10:44:56;;;;;;;32.35;5.88;;;;;;;;;;4991634;28;20049;-76
2024/01/22 10:47:24;;;;;;;42.42;6.10;;;;;;;;;;4980312;28;20034;-75
2024/01/22 10:49:53;;;;;;;34.95;6.63;;;;;;;;;;4987549;28;20034;-75
2024/01/22 10:52:20;;;;;;;38.70;5.68;;;;;;;;;;4985820;28;20040;-76
2024/01/22 10:54:46;;;;;;;39.28;5.57;;;;;;;;;;4979765;28;20109;-74
2024/01/22 10:57:17;;;;;;;31.40;5.05;;;;;;;;;;4983072;28;20126;-75
2024/01/22 10:59:50;;;;;;;31.00;5.38;;;;;;;;;;4978550;28;20065;-74
2024/01/22 11:02:30;;;;;;;39.83;6.30;;;;;;;;;;4988043;28;20453;-75
2024/01/22 11:05:00;;;;;;;40.35;7.22;;;;;;;;;;4980216;28;20041;-74
2024/01/22 11:07:31;;;;;;;30.20;4.93;;;;;;;;;;4975505;28;20030;-76
2024/01/22 11:09:59;;;;;;;40.55;6.05;;;;;;;;;;4977394;28;22308;-74
2024/01/22 11:12:26;;;;;;;38.90;5.95;;;;;;;;;;4985025;28;20113;-74
2024/01/22 11:14:52;;;;;;;40.33;6.50;;;;;;;;;;5005883;28;20049;-75
2024/01/22 11:17:19;;;;;;;39.25;5.90;;;;;;;;;;4981895;28;20026;-77
2024/01/22 11:19:46;;;;;;;40.72;6.55;;;;;;;;;;5016306;28;20043;-77
2024/01/22 11:22:21;;;;;;;47.67;7.22;;;;;;;;;;4991930;28;20057;-77
2024/01/22 11:25:03;;;;;;;44.03;6.00;;;;;;;;;;4990326;28;20027;-76
2024/01/22 11:27:42;;;;;;;37.47;5.80;;;;;;;;;;4985027;28;20386;-77
2024/01/22 11:30:21;;;;;;;37.72;5.75;;;;;;;;;;4984107;28;20133;-77
2024/01/22 11:32:47;;;;;;;37.13;5.95;;;;;;;;;;4982730;28;20057;-76
2024/01/22 11:35:13;;;;;;;39.15;7.10;;;;;;;;;;4989166;28;20046;-75
2024/01/22 11:37:40;;;;;;;35.85;6.03;;;;;;;;;;5013568;28;20026;-76
2024/01/22 11:40:11;;;;;;;35.88;5.78;;;;;;;;;;4988877;28;20042;-77
2024/01/22 11:42:37;;;;;;;32.42;6.07;;;;;;;;;;4983802;28;20268;-76
2024/01/22 11:45:13;;;;;;;33.33;6.00;;;;;;;;;;4987015;28;20031;-75
2024/01/22 11:47:41;;;;;;;33.47;5.38;;;;;;;;;;5015863;28;20035;-76
2024/01/22 11:50:08;;;;;;;29.83;5.32;;;;;;;;;;4987586;28;20031;-77
2024/01/22 11:52:35;;;;;;;33.65;5.47;;;;;;;;;;5021430;28;20065;-77
2024/01/22 11:55:05;;;;;;;38.17;5.25;;;;;;;;;;4984667;28;20463;-76
2024/01/22 11:57:35;;;;;;;35.60;6.15;;;;;;;;;;4976340;28;20036;-76
2024/01/22 12:00:11;;;;;;;34.67;5.80;;;;;;;;;;4971161;28;20408;-75
2024/01/22 12:02:41;;;;;;;32.03;6.55;;;;;;;;;;5001898;28;20039;-77
2024/01/22 12:05:12;;;;;;;25.73;4.50;;;;;;;;;;4975787;28;20034;-77
2024/01/22 12:07:43;;;;;;;45.40;6.07;;;;;;;;;;4979691;28;20113;-76
2024/01/22 12:10:25;;;;;;;32.55;5.68;;;;;;;;;;5013735;28;20039;-76
2024/01/22 12:12:56;;;;;;;28.38;5.15;;;;;;;;;;4974119;28;20074;-75
2024/01/22 12:15:23;;;;;;;37.13;4.83;;;;;;;;;;4986235;28;20034;-74
2024/01/22 12:17:50;;;;;;;34.40;6.22;;;;;;;;;;4988845;28;20269;-76
2024/01/22 12:20:16;;;;;;;35.55;7.55;;;;;;;;;;4988397;28;20041;-76
2024/01/22 12:22:43;;;;;;;32.22;5.47;;;;;;;;;;4983346;28;20469;-76
2024/01/22 12:25:10;;;;;;;26.83;4.32;;;;;;;;;;4971120;28;20037;-75
2024/01/22 12:27:37;;;;;;;33.97;5.00;;;;;;;;;;4978987;28;20045;-76
2024/01/22 12:30:04;;;;;;;32.67;5.00;;;;;;;;;;5011472;28;20037;-76
2024/01/22 12:32:30;;;;;;;34.38;5.70;;;;;;;;;;4986159;28;20109;-75
2024/01/22 12:34:57;;;;;;;38.30;5.85;;;;;;;;;;4986345;28;20359;-76
2024/01/22 12:37:25;;;;;;;26.63;4.30;;;;;;;;;;4986049;28;20038;-77
2024/01/22 12:40:04;;;;;;;30.35;5.72;;;;;;;;;;5013229;28;20055;-75
2024/01/22 12:42:30;;;;;;;32.50;4.70;;;;;;;;;;4985605;28;20034;-75
2024/01/22 12:45:00;;;;;;;30.83;4.78;;;;;;;;;;4986227;28;20034;-75
2024/01/22 12:47:27;;;;;;;29.00;4.28;;;;;;;;;;4987502;28;20027;-76
2024/01/22 12:49:53;;;;;;;31.90;4.75;;;;;;;;;;5009868;28;20038;-77
2024/01/22 12:52:22;;;;;;;29.20;5.75;;;;;;;;;;4988142;28;20038;-77
2024/01/22 12:54:48;;;;;;;25.98;5.28;;;;;;;;;;4986260;28;20058;-75
2024/01/22 12:57:15;;;;;;;29.77;5.07;;;;;;;;;;4986816;28;20034;-74
2024/01/22 12:59:46;;;;;;;32.33;5.97;;;;;;;;;;4982446;28;20400;-76
2024/01/22 13:02:12;;;;;;;30.67;5.03;;;;;;;;;;4984633;28;20033;-76
2024/01/22 13:04:38;;;;;;;26.77;4.63;;;;;;;;;;4990668;28;20022;-76
2024/01/22 13:07:04;;;;;;;38.38;5.88;;;;;;;;;;4986319;28;20054;-76
2024/01/22 13:09:31;;;;;;;44.35;7.18;;;;;;;;;;4993270;28;20070;-76
2024/01/22 13:11:57;;;;;;;37.90;6.13;;;;;;;;;;4985445;28;20080;-77
2024/01/22 13:14:23;;;;;;;28.05;4.75;;;;;;;;;;4987739;28;20084;-76
2024/01/22 13:16:49;;;;;;;30.10;5.60;;;;;;;;;;4986219;28;20038;-75
2024/01/22 13:19:16;;;;;;;42.42;6.20;;;;;;;;;;5013799;28;20037;-75
2024/01/22 13:21:42;;;;;;;38.45;5.47;;;;;;;;;;4993490;28;20035;-76
2024/01/22 13:24:08;;;;;;;34.55;6.18;;;;;;;;;;4987745;28;20038;-78
2024/01/22 13:26:34;;;;;;;38.72;6.50;;;;;;;;;;4988211;28;20027;-76
2024/01/22 13:29:00;;;;;;;39.03;6.35;;;;;;;;;;4983980;28;20114;-76
2024/01/22 13:31:26;;;;;;;35.75;5.50;;;;;;;;;;4985941;28;20093;-77
2024/01/22 13:33:56;;;;;;;31.42;5.45;;;;;;;;;;4980371;28;20030;-77
2024/01/22 13:36:22;;;;;;;35.85;5.60;;;;;;;;;;4998597;28;20084;-75
2024/01/22 13:38:48;;;;;;;35.53;6.07;;;;;;;;;;4994965;28;20105;-75
2024/01/22 13:41:14;;;;;;;37.75;5.97;;;;;;;;;;4985637;28;20073;-76
2024/01/22 13:43:42;;;;;;;44.38;6.75;;;;;;;;;;4980438;28;20104;-75
2024/01/22 13:46:10;;;;;;;46.92;6.22;;;;;;;;;;5016992;28;20031;-76
2024/01/22 13:48:36;;;;;;;43.47;6.57;;;;;;;;;;5025534;28;20040;-75
2024/01/22 13:51:02;;;;;;;34.83;6.47;;;;;;;;;;5005553;28;20125;-76
2024/01/22 13:53:29;;;;;;;36.65;5.07;;;;;;;;;;4999213;28;20084;-76
2024/01/22 13:55:55;;;;;;;34.88;5.70;;;;;;;;;;5000500;28;20042;-76
2024/01/22 13:58:25;;;;;;;37.22;5.93;;;;;;;;;;4981327;28;20057;-77
2024/01/22 14:00:51;;;;;;;49.55;7.55;;;;;;;;;;4984998;28;20507;-75
2024/01/22 14:03:17;;;;;;;42.25;6.03;;;;;;;;;;4972514;28;20419;-75
2024/01/22 14:05:43;;;;;;;29.40;6.05;;;;;;;;;;4980079;28;20077;-75
2024/01/22 14:08:09;;;;;;;34.58;5.32;;;;;;;;;;4989104;28;20489;-76
2024/01/22 14:10:35;;;;;;;40.58;6.10;;;;;;;;;;4989131;28;20129;-76
2024/01/22 14:13:02;;;;;;;33.38;5.40;;;;;;;;;;4986976;28;20112;-76
2024/01/22 14:15:28;;;;;;;35.35;5.60;;;;;;;;;;4985851;28;20050;-76
2024/01/22 14:17:54;;;;;;;45.38;8.10;;;;;;;;;;5011131;28;20038;-77
2024/01/22 14:20:22;;;;;;;40.45;6.65;;;;;;;;;;4988257;28;20487;-77
2024/01/22 14:22:48;;;;;;;37.40;5.88;;;;;;;;;;4985495;28;20046;-77
2024/01/22 14:25:14;;;;;;;37.97;6.93;;;;;;;;;;4989150;28;20092;-77
2024/01/22 14:27:41;;;;;;;35.85;6.30;;;;;;;;;;5009028;28;20132;-77
2024/01/22 14:30:07;;;;;;;37.90;6.75;;;;;;;;;;4986101;28;20518;-75
2024/01/22 14:32:33;;;;;;;37.58;5.40;;;;;;;;;;4988836;28;20065;-75